sensor_id;sensor_type;location;lat;lon;timestamp;temperature;humidity
72940;DHT22;61094;51.154;13.570;2023-02-18T00:00:45;9.50;99.90
72940;DHT22;61094;51.154;13.570;2023-02-18T00:02:46;9.50;99.90
72940;DHT22;61094;51.154;13.570;2023-02-18T00:04:48;9.50;99.90
72940;DHT22;61094;51.154;13.570;2023-02-18T00:06:49;9.50;99.90
72940;DHT22;61094;51.154;13.570;2023-02-18T00:08:52;9.50;99.90
72940;DHT22;61094;51.154;13.570;2023-02-18T00:10:53;9.50;99.90
72940;DHT22;61094;51.154;13.570;2023-02-18T00:12:56;9.40;99.90
72940;DHT22;61094;51.154;13.570;2023-02-18T00:14:59;9.40;99.90
72940;DHT22;61094;51.154;13.570;2023-02-18T00:17:01;9.40;99.90
72940;DHT22;61094;51.154;13.570;2023-02-18T00:19:05;9.30;99.90
72940;DHT22;61094;51.154;13.570;2023-02-18T00:21:07;9.30;99.90
72940;DHT22;61094;51.154;13.570;2023-02-18T00:23:09;9.30;99.90
72940;DHT22;61094;51.154;13.570;2023-02-18T00:25:10;9.20;99.90
72940;DHT22;61094;51.154;13.570;2023-02-18T00:27:12;9.20;99.90
72940;DHT22;61094;51.154;13.570;2023-02-18T00:29:15;9.10;99.90
72940;DHT22;61094;51.154;13.570;2023-02-18T00:31:19;9.10;99.90
72940;DHT22;61094;51.154;13.570;2023-02-18T00:33:21;9.10;99.90
72940;DHT22;61094;51.154;13.570;2023-02-18T00:35:22;9.10;99.90
72940;DHT22;61094;51.154;13.570;2023-02-18T00:37:24;9.00;99.90
72940;DHT22;61094;51.154;13.570;2023-02-18T00:39:25;9.00;99.90
72940;DHT22;61094;51.154;13.570;2023-02-18T00:41:28;9.00;99.90
72940;DHT22;61094;51.154;13.570;2023-02-18T00:43:31;9.00;99.90
72940;DHT22;61094;51.154;13.570;2023-02-18T00:45:33;9.00;99.90
72940;DHT22;61094;51.154;13.570;2023-02-18T00:47:35;9.00;99.90
72940;DHT22;61094;51.154;13.570;2023-02-18T00:49:37;8.90;99.90
72940;DHT22;61094;51.154;13.570;2023-02-18T00:51:39;8.90;99.90
72940;DHT22;61094;51.154;13.570;2023-02-18T00:53:41;8.90;99.90
72940;DHT22;61094;51.154;13.570;2023-02-18T00:55:44;8.80;99.90
72940;DHT22;61094;51.154;13.570;2023-02-18T00:57:47;8.80;99.90
72940;DHT22;61094;51.154;13.570;2023-02-18T00:59:48;8.80;99.90
72940;DHT22;61094;51.154;13.570;2023-02-18T01:01:51;8.80;99.90
72940;DHT22;61094;51.154;13.570;2023-02-18T01:03:54;8.70;99.90
72940;DHT22;61094;51.154;13.570;2023-02-18T01:05:56;8.70;99.90
72940;DHT22;61094;51.154;13.570;2023-02-18T01:07:57;8.70;99.90
72940;DHT22;61094;51.154;13.570;2023-02-18T01:09:59;8.70;99.90
72940;DHT22;61094;51.154;13.570;2023-02-18T01:12:02;8.70;99.90
72940;DHT22;61094;51.154;13.570;2023-02-18T01:14:04;8.70;99.90
72940;DHT22;61094;51.154;13.570;2023-02-18T01:16:05;8.60;99.90
72940;DHT22;61094;51.154;13.570;2023-02-18T01:18:09;8.60;99.90
72940;DHT22;61094;51.154;13.570;2023-02-18T01:20:12;8.60;99.90
72940;DHT22;61094;51.154;13.570;2023-02-18T01:22:14;8.60;99.90
72940;DHT22;61094;51.154;13.570;2023-02-18T01:24:15;8.60;99.90
72940;DHT22;61094;51.154;13.570;2023-02-18T01:26:17;8.60;99.90
72940;DHT22;61094;51.154;13.570;2023-02-18T01:28:19;8.60;99.90
72940;DHT22;61094;51.154;13.570;2023-02-18T01:30:24;8.60;99.90
72940;DHT22;61094;51.154;13.570;2023-02-18T01:32:26;8.60;99.90
72940;DHT22;61094;51.154;13.570;2023-02-18T01:34:29;8.60;99.90
72940;DHT22;61094;51.154;13.570;2023-02-18T01:36:33;8.60;99.90
72940;DHT22;61094;51.154;13.570;2023-02-18T01:38:35;8.50;99.90
72940;DHT22;61094;51.154;13.570;2023-02-18T01:40:44;8.50;99.90
72940;DHT22;61094;51.154;13.570;2023-02-18T01:42:46;8.50;99.90
72940;DHT22;61094;51.154;13.570;2023-02-18T01:44:48;8.50;99.90
72940;DHT22;61094;51.154;13.570;2023-02-18T01:46:50;8.40;99.90
72940;DHT22;61094;51.154;13.570;2023-02-18T01:48:54;8.50;99.90
72940;DHT22;61094;51.154;13.570;2023-02-18T01:51:00;8.40;99.90
72940;DHT22;61094;51.154;13.570;2023-02-18T01:53:02;8.40;99.90
72940;DHT22;61094;51.154;13.570;2023-02-18T01:55:05;8.40;99.90
72940;DHT22;61094;51.154;13.570;2023-02-18T01:57:09;8.40;99.90
72940;DHT22;61094;51.154;13.570;2023-02-18T01:59:13;8.40;99.90
72940;DHT22;61094;51.154;13.570;2023-02-18T02:01:16;8.30;99.90
72940;DHT22;61094;51.154;13.570;2023-02-18T02:03:18;8.30;99.90
72940;DHT22;61094;51.154;13.570;2023-02-18T02:05:20;8.30;99.90
72940;DHT22;61094;51.154;13.570;2023-02-18T02:07:25;8.30;99.90
72940;DHT22;61094;51.154;13.570;2023-02-18T02:09:29;8.30;99.90
72940;DHT22;61094;51.154;13.570;2023-02-18T02:11:40;8.30;99.90
72940;DHT22;61094;51.154;13.570;2023-02-18T02:13:56;8.20;99.90
72940;DHT22;61094;51.154;13.570;2023-02-18T02:16:05;8.20;99.90
72940;DHT22;61094;51.154;13.570;2023-02-18T02:18:20;8.20;99.90
72940;DHT22;61094;51.154;13.570;2023-02-18T02:20:56;8.20;99.90
72940;DHT22;61094;51.154;13.570;2023-02-18T02:23:28;8.20;99.90
72940;DHT22;61094;51.154;13.570;2023-02-18T02:28:32;8.20;99.90
72940;DHT22;61094;51.154;13.570;2023-02-18T02:30:57;8.20;99.90
72940;DHT22;61094;51.154;13.570;2023-02-18T02:33:19;8.20;99.90
72940;DHT22;61094;51.154;13.570;2023-02-18T02:35:28;8.20;99.90
72940;DHT22;61094;51.154;13.570;2023-02-18T02:37:37;8.20;99.90
72940;DHT22;61094;51.154;13.570;2023-02-18T02:39:48;8.20;99.90
72940;DHT22;61094;51.154;13.570;2023-02-18T02:41:55;8.20;99.90
72940;DHT22;61094;51.154;13.570;2023-02-18T02:44:10;8.20;99.90
72940;DHT22;61094;51.154;13.570;2023-02-18T02:46:20;8.20;99.90
72940;DHT22;61094;51.154;13.570;2023-02-18T02:48:28;8.30;99.90
72940;DHT22;61094;51.154;13.570;2023-02-18T02:50:37;8.30;99.90
72940;DHT22;61094;51.154;13.570;2023-02-18T02:52:45;8.30;99.90
72940;DHT22;61094;51.154;13.570;2023-02-18T02:54:48;8.40;99.90
72940;DHT22;61094;51.154;13.570;2023-02-18T02:56:49;8.50;99.90
72940;DHT22;61094;51.154;13.570;2023-02-18T02:58:58;8.50;99.90
72940;DHT22;61094;51.154;13.570;2023-02-18T03:01:19;8.60;99.90
72940;DHT22;61094;51.154;13.570;2023-02-18T03:03:42;8.60;99.90
72940;DHT22;61094;51.154;13.570;2023-02-18T03:06:15;8.70;99.90
72940;DHT22;61094;51.154;13.570;2023-02-18T03:08:29;8.70;99.90
72940;DHT22;61094;51.154;13.570;2023-02-18T03:10:44;8.70;99.90
72940;DHT22;61094;51.154;13.570;2023-02-18T03:12:52;8.70;99.90
72940;DHT22;61094;51.154;13.570;2023-02-18T03:15:03;8.70;99.90
72940;DHT22;61094;51.154;13.570;2023-02-18T03:17:11;8.70;99.90
72940;DHT22;61094;51.154;13.570;2023-02-18T03:19:21;8.70;99.90
72940;DHT22;61094;51.154;13.570;2023-02-18T03:21:29;8.70;99.90
72940;DHT22;61094;51.154;13.570;2023-02-18T03:23:34;8.70;99.90
72940;DHT22;61094;51.154;13.570;2023-02-18T03:25:39;8.70;99.90
72940;DHT22;61094;51.154;13.570;2023-02-18T03:27:43;8.70;99.90
72940;DHT22;61094;51.154;13.570;2023-02-18T03:29:51;8.70;99.90
72940;DHT22;61094;51.154;13.570;2023-02-18T03:31:58;8.60;99.90
72940;DHT22;61094;51.154;13.570;2023-02-18T03:34:03;8.70;99.90
72940;DHT22;61094;51.154;13.570;2023-02-18T03:36:05;8.70;99.90
72940;DHT22;61094;51.154;13.570;2023-02-18T03:38:13;8.70;99.90
72940;DHT22;61094;51.154;13.570;2023-02-18T03:40:17;8.60;99.90
72940;DHT22;61094;51.154;13.570;2023-02-18T03:42:19;8.60;99.90
72940;DHT22;61094;51.154;13.570;2023-02-18T03:44:25;8.60;99.90
72940;DHT22;61094;51.154;13.570;2023-02-18T03:46:27;8.60;99.90
72940;DHT22;61094;51.154;13.570;2023-02-18T03:48:28;8.60;99.90
72940;DHT22;61094;51.154;13.570;2023-02-18T03:50:30;8.60;99.90
72940;DHT22;61094;51.154;13.570;2023-02-18T03:52:32;8.60;99.90
72940;DHT22;61094;51.154;13.570;2023-02-18T03:54:37;8.60;99.90
72940;DHT22;61094;51.154;13.570;2023-02-18T03:56:39;8.60;99.90
72940;DHT22;61094;51.154;13.570;2023-02-18T03:58:41;8.60;99.90
72940;DHT22;61094;51.154;13.570;2023-02-18T04:00:44;8.60;99.90
72940;DHT22;61094;51.154;13.570;2023-02-18T04:02:45;8.60;99.90
72940;DHT22;61094;51.154;13.570;2023-02-18T04:04:47;8.60;99.90
72940;DHT22;61094;51.154;13.570;2023-02-18T04:06:48;8.60;99.90
72940;DHT22;61094;51.154;13.570;2023-02-18T04:08:50;8.60;99.90
72940;DHT22;61094;51.154;13.570;2023-02-18T04:10:53;8.50;99.90
72940;DHT22;61094;51.154;13.570;2023-02-18T04:12:55;8.50;99.90
72940;DHT22;61094;51.154;13.570;2023-02-18T04:14:56;8.50;99.90
72940;DHT22;61094;51.154;13.570;2023-02-18T04:16:58;8.50;99.90
72940;DHT22;61094;51.154;13.570;2023-02-18T04:19:00;8.50;99.90
72940;DHT22;61094;51.154;13.570;2023-02-18T04:21:02;8.50;99.90
72940;DHT22;61094;51.154;13.570;2023-02-18T04:23:04;8.50;99.90
72940;DHT22;61094;51.154;13.570;2023-02-18T04:25:07;8.50;99.90
72940;DHT22;61094;51.154;13.570;2023-02-18T04:27:10;8.50;99.90
72940;DHT22;61094;51.154;13.570;2023-02-18T04:29:11;8.50;99.90
72940;DHT22;61094;51.154;13.570;2023-02-18T04:31:13;8.50;99.90
72940;DHT22;61094;51.154;13.570;2023-02-18T04:33:15;8.50;99.90
72940;DHT22;61094;51.154;13.570;2023-02-18T04:35:17;8.50;99.90
72940;DHT22;61094;51.154;13.570;2023-02-18T04:37:18;8.50;99.90
72940;DHT22;61094;51.154;13.570;2023-02-18T04:39:20;8.50;99.90
72940;DHT22;61094;51.154;13.570;2023-02-18T04:41:22;8.50;99.90
72940;DHT22;61094;51.154;13.570;2023-02-18T04:43:25;8.50;99.90
72940;DHT22;61094;51.154;13.570;2023-02-18T04:45:28;8.50;99.90
72940;DHT22;61094;51.154;13.570;2023-02-18T04:47:30;8.50;99.90
72940;DHT22;61094;51.154;13.570;2023-02-18T04:49:32;8.50;99.90
72940;DHT22;61094;51.154;13.570;2023-02-18T04:51:33;8.50;99.90
72940;DHT22;61094;51.154;13.570;2023-02-18T04:53:37;8.50;99.90
72940;DHT22;61094;51.154;13.570;2023-02-18T04:55:38;8.60;99.90
72940;DHT22;61094;51.154;13.570;2023-02-18T04:57:40;8.60;99.90
72940;DHT22;61094;51.154;13.570;2023-02-18T04:59:43;8.60;99.90
72940;DHT22;61094;51.154;13.570;2023-02-18T05:01:44;8.60;99.90
72940;DHT22;61094;51.154;13.570;2023-02-18T05:03:46;8.60;99.90
72940;DHT22;61094;51.154;13.570;2023-02-18T05:05:48;8.60;99.90
72940;DHT22;61094;51.154;13.570;2023-02-18T05:07:49;8.60;99.90
72940;DHT22;61094;51.154;13.570;2023-02-18T05:09:51;8.60;99.90
72940;DHT22;61094;51.154;13.570;2023-02-18T05:11:53;8.60;99.90
72940;DHT22;61094;51.154;13.570;2023-02-18T05:13:55;8.60;99.90
72940;DHT22;61094;51.154;13.570;2023-02-18T05:15:58;8.60;99.90
72940;DHT22;61094;51.154;13.570;2023-02-18T05:17:59;8.60;99.90
72940;DHT22;61094;51.154;13.570;2023-02-18T05:20:01;8.60;99.90
72940;DHT22;61094;51.154;13.570;2023-02-18T05:22:03;8.60;99.90
72940;DHT22;61094;51.154;13.570;2023-02-18T05:24:05;8.60;99.90
72940;DHT22;61094;51.154;13.570;2023-02-18T05:26:08;8.60;99.90
72940;DHT22;61094;51.154;13.570;2023-02-18T05:28:09;8.60;99.90
72940;DHT22;61094;51.154;13.570;2023-02-18T05:30:11;8.60;99.90
72940;DHT22;61094;51.154;13.570;2023-02-18T05:32:14;8.60;99.90
72940;DHT22;61094;51.154;13.570;2023-02-18T05:34:16;8.60;99.90
72940;DHT22;61094;51.154;13.570;2023-02-18T05:36:18;8.60;99.90
72940;DHT22;61094;51.154;13.570;2023-02-18T05:38:19;8.60;99.90
72940;DHT22;61094;51.154;13.570;2023-02-18T05:40:21;8.60;99.90
72940;DHT22;61094;51.154;13.570;2023-02-18T05:42:23;8.60;99.90
72940;DHT22;61094;51.154;13.570;2023-02-18T05:44:24;8.60;99.90
72940;DHT22;61094;51.154;13.570;2023-02-18T05:46:32;8.60;99.90
72940;DHT22;61094;51.154;13.570;2023-02-18T05:48:35;8.60;99.90
72940;DHT22;61094;51.154;13.570;2023-02-18T05:50:36;8.60;99.90
72940;DHT22;61094;51.154;13.570;2023-02-18T05:52:38;8.60;99.90
72940;DHT22;61094;51.154;13.570;2023-02-18T05:54:40;8.60;99.90
72940;DHT22;61094;51.154;13.570;2023-02-18T05:56:41;8.60;99.90
72940;DHT22;61094;51.154;13.570;2023-02-18T05:58:43;8.60;99.90
72940;DHT22;61094;51.154;13.570;2023-02-18T06:00:45;8.60;99.90
72940;DHT22;61094;51.154;13.570;2023-02-18T06:02:47;8.60;99.90
72940;DHT22;61094;51.154;13.570;2023-02-18T06:04:50;8.50;99.90
72940;DHT22;61094;51.154;13.570;2023-02-18T06:06:51;8.50;99.90
72940;DHT22;61094;51.154;13.570;2023-02-18T06:08:54;8.50;99.90
72940;DHT22;61094;51.154;13.570;2023-02-18T06:10:55;8.50;99.90
72940;DHT22;61094;51.154;13.570;2023-02-18T06:12:57;8.50;99.90
72940;DHT22;61094;51.154;13.570;2023-02-18T06:15:01;8.50;99.90
72940;DHT22;61094;51.154;13.570;2023-02-18T06:17:03;8.40;99.90
72940;DHT22;61094;51.154;13.570;2023-02-18T06:19:05;8.40;99.90
72940;DHT22;61094;51.154;13.570;2023-02-18T06:21:08;8.40;99.90
72940;DHT22;61094;51.154;13.570;2023-02-18T06:23:09;8.40;99.90
72940;DHT22;61094;51.154;13.570;2023-02-18T06:25:11;8.40;99.90
72940;DHT22;61094;51.154;13.570;2023-02-18T06:27:13;8.30;99.90
72940;DHT22;61094;51.154;13.570;2023-02-18T06:29:14;8.30;99.90
72940;DHT22;61094;51.154;13.570;2023-02-18T06:31:16;8.30;99.90
72940;DHT22;61094;51.154;13.570;2023-02-18T06:33:17;8.30;99.90
72940;DHT22;61094;51.154;13.570;2023-02-18T06:35:19;8.30;99.90
72940;DHT22;61094;51.154;13.570;2023-02-18T06:37:22;8.30;99.90
72940;DHT22;61094;51.154;13.570;2023-02-18T06:39:24;8.30;99.90
72940;DHT22;61094;51.154;13.570;2023-02-18T06:41:25;8.30;99.90
72940;DHT22;61094;51.154;13.570;2023-02-18T06:43:27;8.30;99.90
72940;DHT22;61094;51.154;13.570;2023-02-18T06:45:29;8.30;99.90
72940;DHT22;61094;51.154;13.570;2023-02-18T06:47:30;8.30;99.90
72940;DHT22;61094;51.154;13.570;2023-02-18T06:49:32;8.30;99.90
72940;DHT22;61094;51.154;13.570;2023-02-18T06:51:35;8.20;99.90
72940;DHT22;61094;51.154;13.570;2023-02-18T06:53:38;8.20;99.90
72940;DHT22;61094;51.154;13.570;2023-02-18T06:55:40;8.20;99.90
72940;DHT22;61094;51.154;13.570;2023-02-18T06:57:42;8.20;99.90
72940;DHT22;61094;51.154;13.570;2023-02-18T06:59:43;8.20;99.90
72940;DHT22;61094;51.154;13.570;2023-02-18T07:01:45;8.20;99.90
72940;DHT22;61094;51.154;13.570;2023-02-18T07:03:47;8.20;99.90
72940;DHT22;61094;51.154;13.570;2023-02-18T07:05:48;8.20;99.90
72940;DHT22;61094;51.154;13.570;2023-02-18T07:07:50;8.20;99.90
72940;DHT22;61094;51.154;13.570;2023-02-18T07:09:53;8.20;99.90
72940;DHT22;61094;51.154;13.570;2023-02-18T07:11:55;8.20;99.90
72940;DHT22;61094;51.154;13.570;2023-02-18T07:13:56;8.20;99.90
72940;DHT22;61094;51.154;13.570;2023-02-18T07:15:58;8.20;99.90
72940;DHT22;61094;51.154;13.570;2023-02-18T07:18:00;8.20;99.90
72940;DHT22;61094;51.154;13.570;2023-02-18T07:20:01;8.20;99.90
72940;DHT22;61094;51.154;13.570;2023-02-18T07:22:03;8.20;99.90
72940;DHT22;61094;51.154;13.570;2023-02-18T07:24:05;8.20;99.90
72940;DHT22;61094;51.154;13.570;2023-02-18T07:26:10;8.20;99.90
72940;DHT22;61094;51.154;13.570;2023-02-18T07:28:12;8.20;99.90
72940;DHT22;61094;51.154;13.570;2023-02-18T07:30:14;8.20;99.90
72940;DHT22;61094;51.154;13.570;2023-02-18T07:32:17;8.20;99.90
72940;DHT22;61094;51.154;13.570;2023-02-18T07:34:20;8.20;99.90
72940;DHT22;61094;51.154;13.570;2023-02-18T07:36:21;8.20;99.90
72940;DHT22;61094;51.154;13.570;2023-02-18T07:38:24;8.20;99.90
72940;DHT22;61094;51.154;13.570;2023-02-18T07:40:26;8.20;99.90
72940;DHT22;61094;51.154;13.570;2023-02-18T07:42:29;8.20;99.90
72940;DHT22;61094;51.154;13.570;2023-02-18T07:44:30;8.20;99.90
72940;DHT22;61094;51.154;13.570;2023-02-18T07:46:32;8.20;99.90
72940;DHT22;61094;51.154;13.570;2023-02-18T07:48:34;8.20;99.90
72940;DHT22;61094;51.154;13.570;2023-02-18T07:50:40;8.20;99.90
72940;DHT22;61094;51.154;13.570;2023-02-18T07:52:41;8.20;99.90
72940;DHT22;61094;51.154;13.570;2023-02-18T07:54:43;8.20;99.90
72940;DHT22;61094;51.154;13.570;2023-02-18T07:56:45;8.30;99.90
72940;DHT22;61094;51.154;13.570;2023-02-18T07:58:48;8.20;99.90
72940;DHT22;61094;51.154;13.570;2023-02-18T08:00:51;8.20;99.90
72940;DHT22;61094;51.154;13.570;2023-02-18T08:02:52;8.20;99.90
72940;DHT22;61094;51.154;13.570;2023-02-18T08:04:54;8.20;99.90
72940;DHT22;61094;51.154;13.570;2023-02-18T08:06:56;8.20;99.90
72940;DHT22;61094;51.154;13.570;2023-02-18T08:08:57;8.20;99.90
72940;DHT22;61094;51.154;13.570;2023-02-18T08:11:01;8.20;99.90
72940;DHT22;61094;51.154;13.570;2023-02-18T08:13:03;8.30;99.90
72940;DHT22;61094;51.154;13.570;2023-02-18T08:15:06;8.30;99.90
72940;DHT22;61094;51.154;13.570;2023-02-18T08:17:08;8.30;99.90
72940;DHT22;61094;51.154;13.570;2023-02-18T08:19:10;8.30;99.90
72940;DHT22;61094;51.154;13.570;2023-02-18T08:21:12;8.30;99.90
72940;DHT22;61094;51.154;13.570;2023-02-18T08:23:14;8.30;99.90
72940;DHT22;61094;51.154;13.570;2023-02-18T08:25:16;8.30;99.90
72940;DHT22;61094;51.154;13.570;2023-02-18T08:27:18;8.40;99.90
72940;DHT22;61094;51.154;13.570;2023-02-18T08:29:19;8.40;99.90
72940;DHT22;61094;51.154;13.570;2023-02-18T08:31:24;8.30;99.90
72940;DHT22;61094;51.154;13.570;2023-02-18T08:33:26;8.40;99.90
72940;DHT22;61094;51.154;13.570;2023-02-18T08:35:28;8.40;99.90
72940;DHT22;61094;51.154;13.570;2023-02-18T08:37:30;8.40;99.90
72940;DHT22;61094;51.154;13.570;2023-02-18T08:39:33;8.40;99.90
72940;DHT22;61094;51.154;13.570;2023-02-18T08:41:35;8.40;99.90
72940;DHT22;61094;51.154;13.570;2023-02-18T08:43:36;8.40;99.90
72940;DHT22;61094;51.154;13.570;2023-02-18T08:45:38;8.40;99.90
72940;DHT22;61094;51.154;13.570;2023-02-18T08:47:41;8.50;99.90
72940;DHT22;61094;51.154;13.570;2023-02-18T08:49:43;8.50;99.90
72940;DHT22;61094;51.154;13.570;2023-02-18T08:51:45;8.50;99.90
72940;DHT22;61094;51.154;13.570;2023-02-18T08:53:47;8.50;99.90
72940;DHT22;61094;51.154;13.570;2023-02-18T08:55:48;8.50;99.90
72940;DHT22;61094;51.154;13.570;2023-02-18T08:57:50;8.50;99.90
72940;DHT22;61094;51.154;13.570;2023-02-18T08:59:52;8.50;99.90
72940;DHT22;61094;51.154;13.570;2023-02-18T09:01:53;8.50;99.90
72940;DHT22;61094;51.154;13.570;2023-02-18T09:03:56;8.50;99.90
72940;DHT22;61094;51.154;13.570;2023-02-18T09:05:58;8.50;99.90
72940;DHT22;61094;51.154;13.570;2023-02-18T09:08:00;8.50;99.90
72940;DHT22;61094;51.154;13.570;2023-02-18T09:10:02;8.50;99.90
72940;DHT22;61094;51.154;13.570;2023-02-18T09:12:04;8.50;99.90
72940;DHT22;61094;51.154;13.570;2023-02-18T09:14:06;8.50;99.90
72940;DHT22;61094;51.154;13.570;2023-02-18T09:16:10;8.50;99.90
72940;DHT22;61094;51.154;13.570;2023-02-18T09:18:12;8.50;99.90
72940;DHT22;61094;51.154;13.570;2023-02-18T09:20:15;8.50;99.90
72940;DHT22;61094;51.154;13.570;2023-02-18T09:22:17;8.50;99.90
72940;DHT22;61094;51.154;13.570;2023-02-18T09:24:19;8.50;99.90
72940;DHT22;61094;51.154;13.570;2023-02-18T09:26:21;8.60;99.90
72940;DHT22;61094;51.154;13.570;2023-02-18T09:28:24;8.60;99.90
72940;DHT22;61094;51.154;13.570;2023-02-18T09:30:26;8.60;99.90
72940;DHT22;61094;51.154;13.570;2023-02-18T09:32:28;8.60;99.90
72940;DHT22;61094;51.154;13.570;2023-02-18T09:34:29;8.70;99.90
72940;DHT22;61094;51.154;13.570;2023-02-18T09:36:32;8.70;99.90
72940;DHT22;61094;51.154;13.570;2023-02-18T09:38:35;8.70;99.90
72940;DHT22;61094;51.154;13.570;2023-02-18T09:40:38;8.80;99.90
72940;DHT22;61094;51.154;13.570;2023-02-18T09:42:42;8.80;99.90
72940;DHT22;61094;51.154;13.570;2023-02-18T09:44:48;8.80;99.90
72940;DHT22;61094;51.154;13.570;2023-02-18T09:46:54;8.90;99.90
72940;DHT22;61094;51.154;13.570;2023-02-18T09:49:01;8.90;99.90
72940;DHT22;61094;51.154;13.570;2023-02-18T09:51:04;9.00;99.90
72940;DHT22;61094;51.154;13.570;2023-02-18T09:53:11;9.10;99.90
72940;DHT22;61094;51.154;13.570;2023-02-18T09:55:19;9.20;99.90
72940;DHT22;61094;51.154;13.570;2023-02-18T09:57:25;9.30;99.90
72940;DHT22;61094;51.154;13.570;2023-02-18T09:59:29;9.40;99.90
72940;DHT22;61094;51.154;13.570;2023-02-18T10:01:33;9.60;99.90
72940;DHT22;61094;51.154;13.570;2023-02-18T10:03:36;9.70;99.90
72940;DHT22;61094;51.154;13.570;2023-02-18T10:05:42;9.80;99.90
72940;DHT22;61094;51.154;13.570;2023-02-18T10:07:47;10.00;99.90
72940;DHT22;61094;51.154;13.570;2023-02-18T10:09:51;10.00;99.90
72940;DHT22;61094;51.154;13.570;2023-02-18T10:11:56;10.20;99.90
72940;DHT22;61094;51.154;13.570;2023-02-18T10:14:00;10.30;99.90
72940;DHT22;61094;51.154;13.570;2023-02-18T10:16:04;10.30;99.90
72940;DHT22;61094;51.154;13.570;2023-02-18T10:18:17;10.30;99.90
72940;DHT22;61094;51.154;13.570;2023-02-18T10:20:23;10.30;99.90
72940;DHT22;61094;51.154;13.570;2023-02-18T10:22:26;10.40;99.90
72940;DHT22;61094;51.154;13.570;2023-02-18T10:24:30;10.40;99.90
72940;DHT22;61094;51.154;13.570;2023-02-18T10:26:36;10.50;99.90
72940;DHT22;61094;51.154;13.570;2023-02-18T10:28:38;10.50;99.90
72940;DHT22;61094;51.154;13.570;2023-02-18T10:30:42;10.50;99.90
72940;DHT22;61094;51.154;13.570;2023-02-18T10:32:44;10.60;99.90
72940;DHT22;61094;51.154;13.570;2023-02-18T10:34:48;10.60;99.90
72940;DHT22;61094;51.154;13.570;2023-02-18T10:36:54;10.60;99.90
72940;DHT22;61094;51.154;13.570;2023-02-18T10:39:06;10.70;99.90
72940;DHT22;61094;51.154;13.570;2023-02-18T10:41:20;10.70;99.90
72940;DHT22;61094;51.154;13.570;2023-02-18T10:43:29;10.60;99.90
72940;DHT22;61094;51.154;13.570;2023-02-18T10:45:39;10.70;99.90
72940;DHT22;61094;51.154;13.570;2023-02-18T10:47:49;10.70;99.90
72940;DHT22;61094;51.154;13.570;2023-02-18T10:49:57;10.60;99.90
72940;DHT22;61094;51.154;13.570;2023-02-18T10:52:02;10.60;99.90
72940;DHT22;61094;51.154;13.570;2023-02-18T10:54:03;10.60;99.90
72940;DHT22;61094;51.154;13.570;2023-02-18T10:56:07;10.60;99.90
72940;DHT22;61094;51.154;13.570;2023-02-18T10:58:26;10.60;99.90
72940;DHT22;61094;51.154;13.570;2023-02-18T11:00:33;10.60;99.90
72940;DHT22;61094;51.154;13.570;2023-02-18T11:02:36;10.60;99.90
72940;DHT22;61094;51.154;13.570;2023-02-18T11:04:40;10.70;99.90
72940;DHT22;61094;51.154;13.570;2023-02-18T11:06:44;10.70;99.90
72940;DHT22;61094;51.154;13.570;2023-02-18T11:08:47;10.80;99.90
72940;DHT22;61094;51.154;13.570;2023-02-18T11:10:50;10.80;99.90
72940;DHT22;61094;51.154;13.570;2023-02-18T11:12:56;10.90;99.90
72940;DHT22;61094;51.154;13.570;2023-02-18T11:15:16;10.90;99.90
72940;DHT22;61094;51.154;13.570;2023-02-18T11:17:21;11.00;99.90
72940;DHT22;61094;51.154;13.570;2023-02-18T11:19:33;11.00;99.90
72940;DHT22;61094;51.154;13.570;2023-02-18T11:21:36;11.10;99.90
72940;DHT22;61094;51.154;13.570;2023-02-18T11:23:45;11.10;99.90
72940;DHT22;61094;51.154;13.570;2023-02-18T11:25:54;11.20;99.90
72940;DHT22;61094;51.154;13.570;2023-02-18T11:28:00;11.30;99.90
72940;DHT22;61094;51.154;13.570;2023-02-18T11:30:05;11.30;99.90
72940;DHT22;61094;51.154;13.570;2023-02-18T11:32:10;11.30;99.90
72940;DHT22;61094;51.154;13.570;2023-02-18T11:34:15;11.40;99.90
72940;DHT22;61094;51.154;13.570;2023-02-18T11:36:21;11.50;99.90
72940;DHT22;61094;51.154;13.570;2023-02-18T11:38:28;11.60;99.90
72940;DHT22;61094;51.154;13.570;2023-02-18T11:40:32;11.70;99.90
72940;DHT22;61094;51.154;13.570;2023-02-18T11:42:34;11.70;99.90
72940;DHT22;61094;51.154;13.570;2023-02-18T11:44:37;11.70;99.90
72940;DHT22;61094;51.154;13.570;2023-02-18T11:46:55;11.70;99.90
72940;DHT22;61094;51.154;13.570;2023-02-18T11:49:11;11.80;99.90
72940;DHT22;61094;51.154;13.570;2023-02-18T11:51:23;11.80;99.90
72940;DHT22;61094;51.154;13.570;2023-02-18T11:53:27;11.80;99.90
72940;DHT22;61094;51.154;13.570;2023-02-18T11:55:29;11.80;99.90
72940;DHT22;61094;51.154;13.570;2023-02-18T11:57:34;11.90;99.90
72940;DHT22;61094;51.154;13.570;2023-02-18T11:59:39;11.80;99.90
72940;DHT22;61094;51.154;13.570;2023-02-18T12:01:44;11.90;99.90
72940;DHT22;61094;51.154;13.570;2023-02-18T12:03:52;11.80;99.90
72940;DHT22;61094;51.154;13.570;2023-02-18T12:05:56;11.80;99.90
72940;DHT22;61094;51.154;13.570;2023-02-18T12:08:02;11.80;99.90
72940;DHT22;61094;51.154;13.570;2023-02-18T12:10:11;11.90;99.90
72940;DHT22;61094;51.154;13.570;2023-02-18T12:12:16;11.80;99.90
72940;DHT22;61094;51.154;13.570;2023-02-18T12:14:21;11.80;99.90
72940;DHT22;61094;51.154;13.570;2023-02-18T12:16:32;11.80;99.90
72940;DHT22;61094;51.154;13.570;2023-02-18T12:18:48;11.80;99.90
72940;DHT22;61094;51.154;13.570;2023-02-18T12:21:09;11.80;99.90
72940;DHT22;61094;51.154;13.570;2023-02-18T12:23:18;11.80;99.90
72940;DHT22;61094;51.154;13.570;2023-02-18T12:25:28;11.70;99.90
72940;DHT22;61094;51.154;13.570;2023-02-18T12:27:37;11.70;99.90
72940;DHT22;61094;51.154;13.570;2023-02-18T12:30:04;11.60;99.90
72940;DHT22;61094;51.154;13.570;2023-02-18T12:32:18;11.50;99.90
72940;DHT22;61094;51.154;13.570;2023-02-18T12:34:33;11.40;99.90
72940;DHT22;61094;51.154;13.570;2023-02-18T12:36:50;11.40;99.90
72940;DHT22;61094;51.154;13.570;2023-02-18T12:39:07;11.30;99.90
72940;DHT22;61094;51.154;13.570;2023-02-18T12:41:22;11.20;99.90
72940;DHT22;61094;51.154;13.570;2023-02-18T12:43:34;11.20;99.90
72940;DHT22;61094;51.154;13.570;2023-02-18T12:45:49;11.10;99.90
72940;DHT22;61094;51.154;13.570;2023-02-18T12:48:09;11.00;99.90
72940;DHT22;61094;51.154;13.570;2023-02-18T12:50:37;11.00;99.90
72940;DHT22;61094;51.154;13.570;2023-02-18T12:52:54;10.90;99.90
72940;DHT22;61094;51.154;13.570;2023-02-18T12:55:22;10.90;99.90
72940;DHT22;61094;51.154;13.570;2023-02-18T12:57:44;10.80;99.90
72940;DHT22;61094;51.154;13.570;2023-02-18T13:00:02;10.80;99.90
72940;DHT22;61094;51.154;13.570;2023-02-18T13:02:26;10.80;99.90
72940;DHT22;61094;51.154;13.570;2023-02-18T13:04:47;10.70;99.90
72940;DHT22;61094;51.154;13.570;2023-02-18T13:07:20;10.70;99.90
72940;DHT22;61094;51.154;13.570;2023-02-18T13:09:33;10.70;99.90